Time;durP1;ratioP1;P1;durP2;ratioP2;P2;SDS_P1;SDS_P2;PMS_P1;PMS_P2;Temp;Humidity;BMP_temperature;BMP_pressure;BME280_temperature;BME280_humidity;BME280_pressure;Samples;Min_cycle;Max_cycle;Signal;HPM_P1;HPM_P2
2022/11/22 00:02:11;;;;;;;5.65;3.78;;;;;;;1.96;88.57;99196.44;5006644;28;20080;-64
2022/11/22 00:04:36;;;;;;;8.60;4.90;;;;;;;1.81;89.27;99198.69;5010651;28;20026;-64
2022/11/22 00:07:02;;;;;;;6.85;3.80;;;;;;;1.83;89.67;99183.22;5009145;28;20457;-65
2022/11/22 00:09:27;;;;;;;13.90;3.88;;;;;;;1.93;89.63;99187.28;5007603;28;20041;-64
2022/11/22 00:11:52;;;;;;;5.85;3.17;;;;;;;1.88;90.07;99189.41;5009972;28;20034;-64
2022/11/22 00:14:18;;;;;;;12.60;4.43;;;;;;;2.03;89.06;99183.41;5011015;28;20022;-65
2022/11/22 00:16:43;;;;;;;10.20;4.65;;;;;;;2.04;88.57;99179.63;5011101;28;20040;-64
2022/11/22 00:19:09;;;;;;;6.90;3.33;;;;;;;1.77;89.41;99179.25;5008248;28;20034;-65
2022/11/22 00:21:34;;;;;;;6.80;3.10;;;;;;;1.91;89.51;99194.81;5010656;28;20033;-64
2022/11/22 00:24:00;;;;;;;9.68;3.65;;;;;;;1.90;89.66;99206.53;5010092;28;20429;-65
2022/11/22 00:26:25;;;;;;;10.00;4.45;;;;;;;1.97;89.43;99204.09;5009128;28;20060;-66
2022/11/22 00:28:54;;;;;;;11.93;3.85;;;;;;;2.06;89.15;99214.59;5004067;28;20076;-65
2022/11/22 00:31:19;;;;;;;6.55;3.65;;;;;;;2.05;89.29;99194.47;5009030;28;20028;-64
2022/11/22 00:33:44;;;;;;;8.57;4.03;;;;;;;2.03;89.52;99204.66;5025718;28;20573;-65
2022/11/22 00:36:10;;;;;;;12.15;4.90;;;;;;;1.91;89.57;99191.38;5004688;28;20095;-65
2022/11/22 00:38:35;;;;;;;10.93;3.72;;;;;;;1.88;90.10;99205.31;5006864;28;20037;-65
2022/11/22 00:41:01;;;;;;;13.65;5.15;;;;;;;1.71;90.68;99204.44;5011345;28;20398;-66
2022/11/22 00:43:26;;;;;;;9.15;4.72;;;;;;;1.78;90.30;99209.94;5010569;28;20049;-64
2022/11/22 00:45:52;;;;;;;8.20;4.03;;;;;;;1.78;90.56;99209.19;5006519;28;20041;-64
2022/11/22 00:48:17;;;;;;;11.82;4.40;;;;;;;1.86;90.21;99195.03;5005449;28;20041;-66
2022/11/22 00:50:42;;;;;;;5.38;3.35;;;;;;;1.86;90.30;99200.34;5007309;28;20059;-64
2022/11/22 00:53:08;;;;;;;12.25;4.97;;;;;;;1.94;90.19;99190.69;5010598;28;20077;-65
2022/11/22 00:55:34;;;;;;;6.75;4.55;;;;;;;2.15;89.80;99196.66;5002165;28;20038;-65
2022/11/22 00:57:59;;;;;;;6.25;3.60;;;;;;;2.27;88.98;99208.03;5008528;28;20030;-65
2022/11/22 01:00:25;;;;;;;5.82;3.63;;;;;;;1.98;89.74;99202.19;5009391;28;20040;-65
2022/11/22 01:02:50;;;;;;;11.70;3.60;;;;;;;1.79;90.50;99184.97;4990387;28;20064;-65
2022/11/22 01:05:16;;;;;;;6.90;3.90;;;;;;;1.80;90.57;99191.06;5009887;28;20486;-65
2022/11/22 01:07:43;;;;;;;6.85;3.88;;;;;;;1.98;89.72;99189.72;5008835;28;20120;-65
2022/11/22 01:10:09;;;;;;;7.13;4.03;;;;;;;1.70;90.57;99179.00;5002501;28;20380;-65
2022/11/22 01:12:34;;;;;;;7.47;4.28;;;;;;;1.90;90.85;99182.63;5008200;28;20510;-65
2022/11/22 01:15:00;;;;;;;7.35;3.70;;;;;;;1.99;90.53;99174.56;5009799;28;20038;-66
2022/11/22 01:17:25;;;;;;;8.93;4.18;;;;;;;2.06;90.58;99175.56;5008683;28;20715;-65
2022/11/22 01:19:51;;;;;;;6.50;3.45;;;;;;;2.14;89.84;99176.53;5003362;28;20030;-64
2022/11/22 01:22:16;;;;;;;8.80;4.53;;;;;;;2.19;90.16;99182.38;5007736;28;20449;-64
2022/11/22 01:24:42;;;;;;;10.00;4.15;;;;;;;2.08;90.14;99183.94;5009262;28;20474;-66
2022/11/22 01:27:07;;;;;;;12.63;4.85;;;;;;;1.89;90.33;99175.03;5003455;28;20392;-67
2022/11/22 01:29:33;;;;;;;10.00;3.30;;;;;;;2.11;90.14;99166.59;5011907;28;20049;-65
2022/11/22 01:31:58;;;;;;;10.02;3.85;;;;;;;2.17;89.62;99157.28;5008509;28;20041;-65
2022/11/22 01:34:24;;;;;;;11.32;4.18;;;;;;;1.82;91.01;99154.34;5009151;28;20052;-64
2022/11/22 01:36:50;;;;;;;9.02;4.05;;;;;;;1.75;91.79;99149.63;4984671;28;20042;-66
2022/11/22 01:39:16;;;;;;;12.32;5.07;;;;;;;1.88;91.96;99152.25;5007590;28;20038;-65
2022/11/22 01:41:41;;;;;;;6.78;3.08;;;;;;;2.06;90.54;99143.69;5009126;28;20632;-65
2022/11/22 01:44:43;;;;;;;7.15;3.65;;;;;;;2.00;91.22;99146.91;5005306;28;20461;-65
2022/11/22 01:47:16;;;;;;;;;;;;;;;1.78;90.61;99145.53;4963066;28;20452;-65
2022/11/22 01:49:56;;;;;;;7.65;3.40;;;;;;;1.93;91.63;99144.06;5002759;28;20325;-65
2022/11/22 01:52:24;;;;;;;4.63;3.58;;;;;;;1.81;92.22;99156.25;5009633;28;20030;-65
2022/11/22 01:54:58;;;;;;;18.70;5.88;;;;;;;1.68;92.79;99144.06;5007220;28;20441;-64
2022/11/22 01:57:28;;;;;;;7.50;2.80;;;;;;;1.86;91.70;99149.16;5008492;28;20523;-65
2022/11/22 02:00:05;;;;;;;13.68;5.03;;;;;;;1.99;91.95;99158.66;5004301;28;20777;-66
2022/11/22 02:02:33;;;;;;;7.40;3.60;;;;;;;2.01;91.43;99159.09;5001455;28;20415;-64
2022/11/22 02:05:03;;;;;;;8.38;3.95;;;;;;;1.74;92.45;99163.97;5009229;28;20037;-64
2022/11/22 02:07:37;;;;;;;12.73;6.10;;;;;;;1.91;92.30;99152.34;5008233;28;20042;-65
2022/11/22 02:10:03;;;;;;;13.35;5.50;;;;;;;1.76;92.41;99140.53;5004935;23;20039;-69
2022/11/22 02:12:30;;;;;;;4.43;2.88;;;;;;;1.97;91.95;99148.38;4985168;28;20038;-68
2022/11/22 02:14:57;;;;;;;9.43;3.97;;;;;;;2.00;92.00;99145.03;4990539;28;20497;-68
2022/11/22 02:17:25;;;;;;;7.80;3.88;;;;;;;2.10;92.32;99135.84;4993452;28;20521;-68
2022/11/22 02:19:52;;;;;;;9.10;3.70;;;;;;;1.99;92.04;99127.59;4999419;28;20029;-68
2022/11/22 02:22:37;;;;;;;8.63;4.30;;;;;;;2.09;91.25;99123.69;4990687;28;20571;-68
2022/11/22 02:25:21;;;;;;;14.68;4.93;;;;;;;2.08;91.62;99130.88;4993097;28;20494;-67
2022/11/22 02:27:48;;;;;;;10.50;5.22;;;;;;;2.08;91.56;99133.53;4993866;28;20034;-68
2022/11/22 02:30:17;;;;;;;10.50;4.57;;;;;;;2.13;91.75;99129.88;4994078;28;20037;-68
2022/11/22 02:32:44;;;;;;;7.85;3.75;;;;;;;2.22;91.61;99114.56;4986334;28;20438;-68
2022/11/22 02:35:24;;;;;;;13.45;5.25;;;;;;;2.04;91.64;99110.63;4993182;28;20124;-67
2022/11/22 02:38:00;;;;;;;9.80;5.28;;;;;;;2.13;91.02;99104.06;4993215;28;20088;-67
2022/11/22 02:40:31;;;;;;;7.93;3.90;;;;;;;2.19;91.39;99104.63;4991122;28;20042;-67
2022/11/22 02:43:06;;;;;;;8.52;4.03;;;;;;;2.18;91.21;99103.84;4990654;28;20049;-67
2022/11/22 02:45:32;;;;;;;10.20;4.90;;;;;;;2.27;91.23;99101.81;4979816;28;20054;-67
2022/11/22 02:48:15;;;;;;;7.70;4.22;;;;;;;2.27;90.70;99096.50;4992217;28;20037;-67
2022/11/22 02:50:41;;;;;;;9.88;4.45;;;;;;;2.17;91.03;99094.34;4991054;28;20064;-67
2022/11/22 02:53:07;;;;;;;10.10;3.78;;;;;;;2.31;90.63;99085.97;4993072;28;20050;-68
2022/11/22 02:55:33;;;;;;;8.75;3.72;;;;;;;2.25;91.02;99080.16;4994457;28;20038;-67
2022/11/22 02:57:58;;;;;;;5.85;3.55;;;;;;;2.27;90.43;99082.47;4993012;28;20046;-68
2022/11/22 03:00:44;;;;;;;6.13;3.75;;;;;;;2.14;90.88;99078.31;4992391;28;20053;-68
2022/11/22 03:03:10;;;;;;;8.05;3.63;;;;;;;1.99;91.70;99084.34;4929129;29;20054;-67
2022/11/22 03:05:35;;;;;;;11.63;5.47;;;;;;;1.82;91.96;99082.72;4914917;29;20051;-67
2022/11/22 03:08:00;;;;;;;11.25;4.40;;;;;;;1.73;92.52;99088.16;4930723;29;20058;-68
2022/11/22 03:10:26;;;;;;;10.07;4.47;;;;;;;1.71;93.90;99077.09;4926090;29;20762;-67
2022/11/22 03:12:56;;;;;;;13.88;5.65;;;;;;;1.60;93.81;99083.22;4920554;29;20048;-67
2022/11/22 03:15:21;;;;;;;7.07;3.75;;;;;;;1.78;93.58;99074.66;4932644;29;20435;-68
2022/11/22 03:17:47;;;;;;;11.07;3.15;;;;;;;1.88;93.35;99054.09;4930338;29;20040;-68
2022/11/22 03:20:13;;;;;;;11.68;5.10;;;;;;;1.91;93.65;99056.06;4932820;29;20504;-68
2022/11/22 03:22:38;;;;;;;10.00;4.13;;;;;;;2.09;93.07;99052.03;4932397;29;20039;-68
2022/11/22 03:25:04;;;;;;;6.57;4.25;;;;;;;2.11;92.91;99049.81;4931778;29;20047;-68
2022/11/22 03:27:29;;;;;;;8.55;3.28;;;;;;;2.01;92.27;99060.91;4913278;29;20528;-68
2022/11/22 03:29:55;;;;;;;5.40;2.95;;;;;;;2.10;92.81;99064.16;4931653;29;20477;-68
2022/11/22 03:32:20;;;;;;;7.55;3.58;;;;;;;2.16;92.00;99071.56;4932797;29;20043;-68
2022/11/22 03:35:06;;;;;;;8.77;3.83;;;;;;;2.15;92.23;99066.59;4916873;29;20044;-68
2022/11/22 03:37:31;;;;;;;9.63;4.07;;;;;;;2.20;92.06;99053.84;4892673;29;20040;-68
2022/11/22 03:39:57;;;;;;;11.73;3.58;;;;;;;2.14;92.20;99049.88;4902930;29;20417;-67
2022/11/22 03:42:23;;;;;;;11.55;4.70;;;;;;;2.13;92.18;99043.03;4914101;29;20043;-67
2022/11/22 03:44:48;;;;;;;7.40;3.25;;;;;;;2.21;92.62;99059.91;4912880;29;20044;-68
2022/11/22 03:47:14;;;;;;;10.52;4.35;;;;;;;2.24;92.19;99061.91;4907444;29;20040;-68
2022/11/22 03:49:39;;;;;;;7.05;3.88;;;;;;;2.27;91.65;99072.63;4897956;29;20123;-67
2022/11/22 03:52:04;;;;;;;8.48;4.47;;;;;;;2.36;91.41;99072.47;4896143;29;20462;-67
2022/11/22 03:54:30;;;;;;;9.25;3.90;;;;;;;2.37;91.35;99084.63;4909812;29;20500;-68
2022/11/22 03:56:55;;;;;;;9.07;4.80;;;;;;;2.39;91.40;99072.56;4917248;29;20044;-67
2022/11/22 03:59:21;;;;;;;9.98;3.83;;;;;;;2.46;91.55;99053.38;4913473;29;20068;-66
2022/11/22 04:01:46;;;;;;;5.00;2.60;;;;;;;2.46;91.21;99051.50;4912413;29;20134;-68
2022/11/22 04:04:12;;;;;;;6.55;4.05;;;;;;;2.23;91.83;99037.22;4911623;29;20032;-67
2022/11/22 04:06:38;;;;;;;10.10;4.53;;;;;;;2.25;92.28;99023.63;4916692;29;20069;-68
2022/11/22 04:09:04;;;;;;;7.90;3.72;;;;;;;2.36;92.00;99033.41;4912895;29;20044;-68
2022/11/22 04:11:33;;;;;;;17.52;6.32;;;;;;;2.34;91.84;99051.56;4913157;29;20576;-67
2022/11/22 04:16:42;;;;;;;9.00;3.95;;;;;;;2.25;92.86;99064.22;4995273;28;20044;-69
2022/11/22 04:19:08;;;;;;;5.70;3.53;;;;;;;2.36;92.55;99056.53;4991312;28;20117;-69
2022/11/22 04:21:34;;;;;;;8.48;4.68;;;;;;;2.25;92.55;99066.09;4992545;28;20150;-68
2022/11/22 04:26:45;;;;;;;15.05;3.65;;;;;;;2.27;93.24;99047.94;4997239;28;20109;-68
2022/11/22 04:29:10;;;;;;;9.48;4.97;;;;;;;2.22;93.07;99062.25;4991406;28;20042;-69
2022/11/22 04:34:20;;;;;;;10.80;4.80;;;;;;;2.28;93.62;99047.63;4984483;28;20403;-68
2022/11/22 04:36:45;;;;;;;9.02;4.32;;;;;;;2.25;93.89;99056.25;4991203;28;20042;-68
2022/11/22 04:39:11;;;;;;;9.27;4.18;;;;;;;2.39;94.27;99051.31;4991173;28;20045;-68
2022/11/22 04:41:36;;;;;;;13.43;5.05;;;;;;;2.48;93.34;99032.56;4990369;28;20042;-68
2022/11/22 04:46:45;;;;;;;10.52;3.80;;;;;;;2.60;92.97;99035.94;4986699;28;20149;-66
2022/11/22 04:49:11;;;;;;;9.75;4.43;;;;;;;2.24;93.71;99032.69;4986856;28;20105;-67
2022/11/22 04:54:20;;;;;;;10.07;5.00;;;;;;;2.44;93.78;99023.75;4985915;28;20045;-68
2022/11/22 04:56:46;;;;;;;11.20;4.20;;;;;;;2.44;93.50;99010.47;4990929;28;20030;-68
2022/11/22 04:59:12;;;;;;;7.57;4.45;;;;;;;2.36;93.94;99006.84;4986242;28;20153;-67
2022/11/22 05:01:40;;;;;;;8.45;5.53;;;;;;;2.44;93.83;99010.47;4983901;28;20123;-67
2022/11/22 05:04:06;;;;;;;8.15;4.57;;;;;;;2.63;93.40;99013.22;4991768;28;20394;-67
2022/11/22 05:06:31;;;;;;;7.45;4.60;;;;;;;2.42;93.99;99012.69;4982638;28;20043;-68
2022/11/22 05:08:57;;;;;;;12.38;5.47;;;;;;;2.66;93.79;99012.53;4985199;28;20061;-67
2022/11/22 05:11:22;;;;;;;9.15;4.28;;;;;;;2.78;93.17;99019.66;4981099;28;20027;-68
2022/11/22 05:13:47;;;;;;;8.43;4.55;;;;;;;2.74;92.90;99007.06;5006210;28;20117;-67
2022/11/22 05:16:14;;;;;;;8.80;3.88;;;;;;;2.82;93.01;99021.28;4984335;28;20037;-67
2022/11/22 05:18:40;;;;;;;7.90;4.30;;;;;;;2.78;92.87;99020.44;4990280;28;20038;-68
2022/11/22 05:21:10;;;;;;;14.57;5.20;;;;;;;2.70;93.04;99008.09;4988166;28;20049;-67
2022/11/22 05:23:54;;;;;;;13.47;4.77;;;;;;;2.66;93.43;99001.91;4988266;28;20379;-67
2022/11/22 05:26:35;;;;;;;11.40;3.50;;;;;;;2.82;93.27;99013.31;4988787;28;20057;-67
2022/11/22 05:29:09;;;;;;;6.57;3.55;;;;;;;2.81;93.29;99017.06;4983014;28;20041;-66
2022/11/22 05:31:36;;;;;;;8.98;5.00;;;;;;;2.95;92.68;99024.59;4989494;28;20038;-67
2022/11/22 05:34:03;;;;;;;11.10;4.72;;;;;;;2.98;92.68;99018.63;4986340;28;20065;-67
2022/11/22 05:36:31;;;;;;;6.68;4.15;;;;;;;2.86;92.71;99016.06;4980992;28;20478;-68
2022/11/22 05:38:57;;;;;;;10.93;4.70;;;;;;;2.77;93.48;99018.88;4990654;28;20049;-67
2022/11/22 05:41:22;;;;;;;11.05;3.47;;;;;;;2.82;93.41;99025.81;4988560;28;20034;-68
2022/11/22 05:43:48;;;;;;;9.65;3.67;;;;;;;2.89;93.67;99028.63;4984011;28;20035;-67
2022/11/22 05:46:21;;;;;;;10.13;4.72;;;;;;;2.74;93.26;99033.63;4988322;28;20169;-68
2022/11/22 05:48:47;;;;;;;13.18;5.25;;;;;;;2.93;92.74;99040.91;4984345;28;20039;-68
2022/11/22 05:51:15;;;;;;;8.00;4.32;;;;;;;2.92;92.99;99038.59;4984067;28;20034;-68
2022/11/22 05:53:42;;;;;;;14.85;5.47;;;;;;;2.95;92.53;99046.66;4979382;28;20030;-68
2022/11/22 05:56:10;;;;;;;5.53;3.85;;;;;;;2.83;93.13;99065.34;4981521;28;20450;-66
2022/11/22 05:58:36;;;;;;;15.55;5.85;;;;;;;2.89;92.98;99045.38;4985917;28;20073;-68
2022/11/22 06:01:10;;;;;;;10.80;5.53;;;;;;;2.92;92.88;99047.34;4984146;28;20023;-68
2022/11/22 06:03:36;;;;;;;12.80;4.47;;;;;;;2.93;93.11;99048.09;4992849;28;20383;-69
2022/11/22 06:06:03;;;;;;;8.73;5.18;;;;;;;2.92;92.66;99052.66;4994526;28;20057;-69
2022/11/22 06:08:30;;;;;;;9.35;4.68;;;;;;;2.94;93.53;99058.41;4987846;28;20094;-68
2022/11/22 06:11:03;;;;;;;11.15;4.85;;;;;;;3.05;93.27;99045.34;4979191;28;20387;-68
2022/11/22 06:13:33;;;;;;;13.73;5.15;;;;;;;3.06;92.80;99052.22;4986582;28;20026;-68
2022/11/22 06:15:59;;;;;;;11.32;5.70;;;;;;;3.17;92.23;99048.72;4987842;28;20410;-68
2022/11/22 06:18:25;;;;;;;7.22;3.92;;;;;;;3.13;92.78;99047.06;4982983;28;20113;-68
2022/11/22 06:20:50;;;;;;;8.55;5.90;;;;;;;3.19;92.40;99049.13;4987180;28;20034;-68
2022/11/22 06:23:15;;;;;;;10.82;4.45;;;;;;;3.05;92.86;99045.34;4991587;28;20042;-68
2022/11/22 06:25:41;;;;;;;7.00;3.75;;;;;;;3.04;92.98;99043.84;4980015;28;20792;-69
2022/11/22 06:28:06;;;;;;;11.05;5.93;;;;;;;3.11;92.73;99046.63;4992191;28;20038;-69
2022/11/22 06:30:32;;;;;;;13.85;5.90;;;;;;;3.09;92.06;99054.19;4984852;28;20038;-69
2022/11/22 06:32:57;;;;;;;17.95;5.85;;;;;;;3.13;92.18;99055.81;4988490;28;20403;-69
2022/11/22 06:35:23;;;;;;;10.05;5.70;;;;;;;2.94;93.12;99066.38;4986391;28;20111;-68
2022/11/22 06:37:49;;;;;;;12.25;5.15;;;;;;;2.93;92.75;99058.72;4990843;28;20026;-68
2022/11/22 06:40:17;;;;;;;12.27;5.60;;;;;;;2.76;93.22;99067.81;4989169;28;20037;-68
2022/11/22 06:42:43;;;;;;;11.55;4.97;;;;;;;2.87;93.94;99062.75;4976301;28;20031;-69
2022/11/22 06:45:09;;;;;;;10.75;4.15;;;;;;;3.04;93.05;99068.50;4986520;28;20793;-69
2022/11/22 06:47:34;;;;;;;11.68;5.35;;;;;;;2.73;93.98;99065.84;4977864;28;20086;-67
2022/11/22 06:50:20;;;;;;;13.05;5.80;;;;;;;2.75;94.92;99066.28;4978551;28;20172;-68
2022/11/22 06:52:50;;;;;;;10.70;5.78;;;;;;;2.92;94.93;99059.88;4924513;29;20479;-68
2022/11/22 06:55:16;;;;;;;9.98;4.40;;;;;;;3.06;94.38;99055.63;4929043;29;20520;-68
2022/11/22 06:57:42;;;;;;;13.75;6.40;;;;;;;3.13;94.32;99055.03;4929798;29;20066;-68
2022/11/22 07:00:08;;;;;;;10.90;5.53;;;;;;;2.96;94.16;99058.81;4930872;29;20594;-68
2022/11/22 07:02:33;;;;;;;12.85;6.15;;;;;;;3.06;93.97;99055.63;4922902;29;20040;-68
2022/11/22 07:04:59;;;;;;;15.70;5.50;;;;;;;2.93;94.52;99064.03;4932950;29;20512;-68
2022/11/22 07:07:24;;;;;;;12.30;5.78;;;;;;;2.85;95.40;99067.66;4926291;29;20054;-68
2022/11/22 07:09:50;;;;;;;9.02;5.57;;;;;;;2.96;94.62;99066.78;4924498;29;20040;-68
2022/11/22 07:12:15;;;;;;;8.77;4.75;;;;;;;2.84;95.46;99058.91;4933304;29;20039;-68
2022/11/22 07:14:40;;;;;;;16.42;6.75;;;;;;;2.87;96.17;99055.56;4926067;29;20084;-68
2022/11/22 07:17:06;;;;;;;17.05;4.93;;;;;;;2.84;96.17;99056.25;4930812;29;20078;-68
2022/11/22 07:19:32;;;;;;;16.38;4.93;;;;;;;3.08;95.94;99045.44;4933277;29;20051;-68
2022/11/22 07:21:57;;;;;;;11.85;5.85;;;;;;;3.08;95.33;99065.97;4932790;29;20067;-68
2022/11/22 07:24:24;;;;;;;14.55;5.82;;;;;;;3.16;94.96;99054.34;4925678;29;20044;-68
2022/11/22 07:26:49;;;;;;;9.57;4.70;;;;;;;3.22;94.74;99052.97;4929680;29;20040;-68
2022/11/22 07:29:15;;;;;;;10.35;4.78;;;;;;;3.27;94.84;99064.09;4946394;28;20051;-68
2022/11/22 07:31:43;;;;;;;9.55;5.30;;;;;;;3.11;94.72;99052.75;4992713;28;20045;-68
2022/11/22 07:34:12;;;;;;;11.82;5.32;;;;;;;3.09;95.12;99054.19;4983010;28;20510;-68
2022/11/22 07:36:37;;;;;;;11.10;4.72;;;;;;;3.14;95.44;99062.69;4992120;28;20095;-68
2022/11/22 07:39:03;;;;;;;14.15;5.07;;;;;;;3.15;95.66;99058.91;4992104;28;20505;-68
2022/11/22 07:41:28;;;;;;;10.38;4.80;;;;;;;3.14;95.31;99057.34;4990861;28;20496;-68
2022/11/22 07:43:54;;;;;;;11.93;4.50;;;;;;;3.16;95.22;99051.69;4992994;28;20105;-68
2022/11/22 07:46:24;;;;;;;7.45;3.45;;;;;;;3.23;95.46;99044.63;4986330;28;20096;-69
2022/11/22 07:48:50;;;;;;;9.63;4.63;;;;;;;3.32;95.25;99045.25;4986567;28;20061;-68
2022/11/22 07:51:16;;;;;;;16.35;4.55;;;;;;;3.47;94.52;99057.75;4989960;28;20132;-68
2022/11/22 07:53:42;;;;;;;12.85;4.57;;;;;;;3.58;93.75;99056.06;4986335;28;20030;-68
2022/11/22 07:56:07;;;;;;;14.65;5.05;;;;;;;3.50;94.18;99062.34;4987776;28;20499;-68
2022/11/22 07:58:36;;;;;;;12.90;5.45;;;;;;;3.36;93.98;99061.28;4983811;28;20117;-69
2022/11/22 08:01:09;;;;;;;11.88;6.10;;;;;;;3.44;94.12;99066.44;4991363;28;20125;-68
2022/11/22 08:03:35;;;;;;;7.70;4.45;;;;;;;3.54;93.86;99073.84;4991043;28;20454;-68
2022/11/22 08:06:02;;;;;;;13.80;6.45;;;;;;;3.46;93.71;99061.53;4989551;28;20038;-66
2022/11/22 08:08:28;;;;;;;13.85;4.80;;;;;;;3.28;93.49;99070.22;4987397;28;20038;-67
2022/11/22 08:10:54;;;;;;;10.07;4.75;;;;;;;3.09;94.77;99068.25;4986096;23;20070;-69
2022/11/22 08:13:23;;;;;;;9.48;5.00;;;;;;;3.01;95.22;99058.56;4973279;28;20027;-69
2022/11/22 08:15:49;;;;;;;11.13;5.03;;;;;;;3.17;95.82;99064.66;4990478;28;20030;-69
2022/11/22 08:18:15;;;;;;;10.48;4.93;;;;;;;3.25;95.06;99060.28;4985386;28;20541;-69
2022/11/22 08:20:41;;;;;;;8.27;4.68;;;;;;;3.23;95.38;99065.16;4990782;28;20057;-69
2022/11/22 08:23:07;;;;;;;15.98;5.35;;;;;;;3.13;95.35;99069.13;4989715;28;20034;-69
2022/11/22 08:25:52;;;;;;;13.45;5.30;;;;;;;3.31;95.05;99067.63;5003029;28;20487;-69
2022/11/22 08:28:18;;;;;;;8.43;4.68;;;;;;;3.38;95.04;99069.69;4931180;29;20059;-69
2022/11/22 08:30:43;;;;;;;10.38;4.47;;;;;;;3.48;94.62;99077.88;4913615;29;20799;-69
2022/11/22 08:33:09;;;;;;;12.05;5.22;;;;;;;3.43;94.79;99090.69;4931302;29;20039;-69
2022/11/22 08:35:35;;;;;;;14.95;7.35;;;;;;;3.46;94.45;99088.13;4931922;29;20507;-69
2022/11/22 08:38:00;;;;;;;11.55;5.25;;;;;;;3.57;94.43;99094.47;4925027;29;20090;-69
2022/11/22 08:40:26;;;;;;;12.18;5.90;;;;;;;3.17;94.79;99087.81;4930884;29;20083;-69
2022/11/22 08:42:55;;;;;;;13.75;5.82;;;;;;;3.27;95.82;99095.28;4929822;29;20114;-69
2022/11/22 08:45:20;;;;;;;10.80;4.78;;;;;;;3.30;95.44;99086.59;4926541;29;20062;-68
2022/11/22 08:47:47;;;;;;;10.80;5.15;;;;;;;3.27;95.49;99093.38;4921849;29;20040;-69
2022/11/22 08:50:14;;;;;;;12.85;5.22;;;;;;;3.48;95.12;99091.19;4928541;29;20044;-70
2022/11/22 08:52:39;;;;;;;9.13;4.65;;;;;;;3.52;94.66;99089.38;4926405;29;20055;-70
2022/11/22 08:55:05;;;;;;;8.90;4.50;;;;;;;3.49;94.71;99084.78;4914653;29;20024;-69
2022/11/22 08:57:31;;;;;;;12.48;5.80;;;;;;;3.44;94.45;99087.72;4910642;29;20047;-68
2022/11/22 08:59:56;;;;;;;11.18;5.82;;;;;;;3.52;94.58;99081.41;4929673;29;20130;-69
2022/11/22 09:02:22;;;;;;;14.05;6.28;;;;;;;3.59;94.50;99094.88;4925827;29;20039;-70
2022/11/22 09:04:47;;;;;;;10.60;4.70;;;;;;;3.54;94.19;99105.03;4951832;28;20461;-68
2022/11/22 09:07:13;;;;;;;12.02;5.95;;;;;;;3.58;94.92;99105.88;4981432;28;20069;-69
2022/11/22 09:09:38;;;;;;;10.07;4.93;;;;;;;3.72;94.50;99105.41;4988573;28;20125;-70
2022/11/22 09:12:04;;;;;;;10.57;5.03;;;;;;;3.68;94.11;99115.97;4982391;28;20030;-68
2022/11/22 09:14:29;;;;;;;14.57;4.28;;;;;;;3.53;94.82;99117.56;4992718;28;20226;-69
2022/11/22 09:16:55;;;;;;;8.00;3.85;;;;;;;3.68;94.78;99115.97;4993809;28;20042;-69
2022/11/22 09:19:20;;;;;;;12.23;5.13;;;;;;;3.68;93.83;99129.28;4986650;28;20039;-69
2022/11/22 09:21:46;;;;;;;15.82;4.93;;;;;;;3.68;94.42;99122.06;4988857;28;20081;-67
2022/11/22 09:24:11;;;;;;;10.73;5.25;;;;;;;3.76;94.48;99132.84;4988675;28;20596;-68
2022/11/22 09:26:37;;;;;;;14.10;6.05;;;;;;;3.70;93.82;99128.94;4979803;28;20039;-67
2022/11/22 09:29:02;;;;;;;10.73;4.90;;;;;;;3.79;93.87;99130.31;4979081;28;20038;-70
2022/11/22 09:31:30;;;;;;;7.22;3.45;;;;;;;3.79;93.96;99124.19;4991038;28;20513;-69
2022/11/22 09:33:55;;;;;;;9.65;4.82;;;;;;;3.80;94.32;99123.06;4985105;28;20038;-69
2022/11/22 09:36:25;;;;;;;12.65;5.68;;;;;;;3.81;94.19;99132.59;4977431;28;20068;-69
2022/11/22 09:38:50;;;;;;;7.57;4.57;;;;;;;3.82;94.08;99134.91;4988083;28;20034;-69
2022/11/22 09:41:16;;;;;;;14.30;5.60;;;;;;;3.64;93.71;99134.53;4986949;28;20168;-69
2022/11/22 09:43:50;;;;;;;9.60;4.40;;;;;;;3.63;94.80;99140.97;4987549;28;20042;-69
2022/11/22 09:46:22;;;;;;;10.43;4.70;;;;;;;3.64;94.81;99142.50;4989756;28;20133;-69
2022/11/22 09:49:02;;;;;;;12.57;4.90;;;;;;;3.66;95.27;99137.59;4985697;28;20073;-69
2022/11/22 09:51:36;;;;;;;18.20;6.30;;;;;;;3.75;94.64;99137.44;4988903;28;20048;-69
2022/11/22 09:54:09;;;;;;;11.52;4.68;;;;;;;3.75;93.86;99148.09;4991364;28;20039;-69
2022/11/22 09:56:36;;;;;;;16.17;5.97;;;;;;;3.65;94.58;99141.41;4983161;28;20038;-69
2022/11/22 09:59:20;;;;;;;7.53;4.05;;;;;;;3.85;94.63;99146.78;4984351;28;20490;-70
2022/11/22 10:02:13;;;;;;;11.13;5.32;;;;;;;3.77;94.08;99148.50;4990789;28;20080;-70
2022/11/22 10:05:02;;;;;;;6.82;3.53;;;;;;;3.92;93.45;99147.69;4989186;28;20026;-70
2022/11/22 10:07:33;;;;;;;13.95;3.92;;;;;;;3.94;94.05;99140.13;4990486;28;20044;-70
2022/11/22 10:09:58;;;;;;;11.30;5.78;;;;;;;3.92;94.35;99141.59;4986931;28;20061;-69
2022/11/22 10:12:46;;;;;;;8.73;4.45;;;;;;;4.04;93.55;99141.47;4985866;28;20514;-68
2022/11/22 10:15:37;;;;;;;13.23;5.13;;;;;;;3.92;94.20;99137.03;4979358;28;20126;-68
2022/11/22 10:18:10;;;;;;;;;;;;;;;3.91;94.74;99140.06;4987734;28;20061;-68
2022/11/22 10:20:39;;;;;;;5.35;3.53;;;;;;;3.97;94.55;99144.00;4989514;28;20455;-69
2022/11/22 10:23:20;;;;;;;15.25;5.35;;;;;;;3.95;94.59;99140.91;4988963;28;20494;-68
2022/11/22 10:25:57;;;;;;;9.35;5.00;;;;;;;3.95;94.96;99146.97;4985942;28;20034;-68
2022/11/22 10:28:52;;;;;;;11.50;4.55;;;;;;;4.04;94.87;99144.91;4983278;28;21438;-68
2022/11/22 10:31:28;;;;;;;9.30;5.65;;;;;;;4.06;94.78;99141.91;4981431;28;20035;-69
2022/11/22 10:34:23;;;;;;;14.45;4.72;;;;;;;4.05;94.94;99132.34;4993725;28;20034;-68
2022/11/22 10:36:55;;;;;;;10.65;5.20;;;;;;;3.83;95.03;99151.66;4991465;28;20042;-69
2022/11/22 10:39:36;;;;;;;17.30;5.72;;;;;;;4.03;95.03;99142.59;4990109;28;20046;-69
2022/11/22 10:42:07;;;;;;;8.40;4.78;;;;;;;4.18;94.38;99149.78;4993703;28;20042;-68
2022/11/22 10:45:01;;;;;;;8.07;4.18;;;;;;;4.23;94.41;99152.16;4992459;28;20037;-69
2022/11/22 10:47:46;;;;;;;10.27;4.97;;;;;;;4.28;94.73;99154.53;4982072;28;20153;-70
2022/11/22 10:50:33;;;;;;;11.02;4.43;;;;;;;4.27;94.19;99143.13;4984424;28;20442;-68
2022/11/22 10:53:30;;;;;;;9.02;3.95;;;;;;;4.22;93.93;99145.28;4990885;28;20034;-68
2022/11/22 10:56:17;;;;;;;8.07;4.30;;;;;;;4.30;94.36;99144.28;4985084;28;20411;-68
2022/11/22 10:58:48;;;;;;;9.90;4.85;;;;;;;4.32;94.47;99147.38;4988159;28;20034;-68
2022/11/22 11:01:51;;;;;;;8.80;4.05;;;;;;;4.36;94.29;99140.22;4993153;28;20030;-69
2022/11/22 11:04:19;;;;;;;11.05;5.57;;;;;;;4.32;93.66;99142.06;4995192;28;20101;-69
2022/11/22 11:06:55;;;;;;;13.63;5.15;;;;;;;4.29;94.25;99156.88;5006612;28;20483;-68
2022/11/22 11:09:55;;;;;;;7.75;4.05;;;;;;;4.29;93.84;99156.09;4988556;28;20384;-68
2022/11/22 11:12:32;;;;;;;10.77;4.88;;;;;;;4.36;94.33;99154.34;4979735;28;20133;-68
2022/11/22 11:15:04;;;;;;;14.57;5.50;;;;;;;4.31;94.32;99154.63;4985691;28;20483;-69
2022/11/22 11:17:35;;;;;;;12.90;5.22;;;;;;;4.38;94.69;99143.31;4987749;28;20046;-68
2022/11/22 11:20:10;;;;;;;7.18;4.53;;;;;;;4.43;93.92;99148.38;4989390;28;20451;-69
2022/11/22 11:22:35;;;;;;;6.55;4.45;;;;;;;4.32;94.30;99139.38;4993195;28;20050;-69
2022/11/22 11:25:28;;;;;;;9.00;5.10;;;;;;;4.41;94.64;99148.72;4993811;28;20042;-68
2022/11/22 11:28:01;;;;;;;11.93;4.80;;;;;;;4.34;94.19;99156.56;4986280;28;20049;-68
2022/11/22 11:30:27;;;;;;;13.27;5.53;;;;;;;4.38;94.97;99154.75;4993376;28;20060;-69
2022/11/22 11:32:55;;;;;;;12.18;4.88;;;;;;;4.41;94.88;99161.28;4992004;28;20042;-69
2022/11/22 11:35:25;;;;;;;10.15;4.88;;;;;;;4.48;95.36;99158.75;4982799;28;20078;-70
2022/11/22 11:37:51;;;;;;;9.97;4.20;;;;;;;4.49;95.26;99158.41;4987169;28;20061;-69
2022/11/22 11:40:31;;;;;;;16.05;5.38;;;;;;;4.50;94.66;99153.84;4985891;28;20052;-69
2022/11/22 11:43:19;;;;;;;13.80;5.47;;;;;;;4.47;95.30;99155.31;4992660;28;20388;-69
2022/11/22 11:45:45;;;;;;;12.20;5.93;;;;;;;4.35;95.06;99149.34;4986663;28;20042;-68
2022/11/22 11:48:36;;;;;;;10.35;4.45;;;;;;;4.42;95.85;99141.50;4987775;28;20029;-69
2022/11/22 11:51:34;;;;;;;9.98;4.38;;;;;;;4.51;95.42;99145.50;4999392;28;20384;-70
2022/11/22 11:54:02;;;;;;;13.10;5.55;;;;;;;4.58;95.53;99145.66;4993017;28;20122;-69
2022/11/22 11:56:39;;;;;;;14.00;4.93;;;;;;;4.66;95.62;99149.22;4992298;28;20124;-69
2022/11/22 11:59:11;;;;;;;14.00;5.75;;;;;;;4.72;95.25;99144.38;4978636;28;20034;-70
2022/11/22 12:01:43;;;;;;;10.60;5.30;;;;;;;4.75;95.26;99141.75;4991815;28;20034;-70